METAR Data
IDs: Format: Raw Decoded Include TAF

Data at: 1019 UTC 26 Sep 2018

KPZQ 261015Z AUTO 28009KT 10SM SCT021 SCT070 10/08 A2981 RMK AO2 T01000084
KPZQ 260955Z AUTO 28007G14KT 10SM SCT014 SCT070 10/09 A2980 RMK AO2 T01000085
KPZQ 260935Z AUTO 28009G17KT 10SM OVC012 10/09 A2979 RMK AO2 T01030088
KPZQ 260915Z AUTO 28007G19KT 10SM OVC012 10/09 A2978 RMK AO2 T01030090
KPZQ 260855Z AUTO 29009KT 260V320 10SM BKN010 OVC050 10/09 A2977 RMK AO2 T01010090
KPZQ 260835Z AUTO 28007KT 250V310 10SM BKN012 OVC030 10/09 A2976 RMK AO2 T01030091
KPZQ 260815Z AUTO 28005G14KT 10SM BKN012 BKN021 OVC029 10/09 A2977 RMK AO2 T01040091
KPZQ 260755Z AUTO 29012G18KT 10SM SCT007 BKN014 OVC021 11/10 A2977 RMK AO2 T01060095
KPZQ 260735Z AUTO 29013G22KT 10SM BKN007 OVC012 11/11 A2977 RMK AO2 T01130106
KPZQ 260715Z AUTO 29012G17KT 4SM BR OVC003 12/11 A2975 RMK AO2 T01200114
KPZQ 260655Z AUTO 30008KT 7SM OVC003 12/12 A2974 RMK AO2 T01230117
KPZQ 260635Z AUTO 30010G18KT 10SM OVC003 13/12 A2973 RMK AO2 T01270121
KPZQ 260615Z AUTO 31010G17KT 10SM OVC003 13/13 A2971 RMK AO2 T01340128
KPZQ 260555Z AUTO 31005KT 10SM OVC003 14/13 A2968 RMK AO2 T01380132 10215 20138
KPZQ 260535Z AUTO 31010G18KT 10SM OVC003 14/14 A2968 RMK AO2 T01440136
KPZQ 260515Z AUTO 32010G15KT 7SM -DZ SCT003 BKN009 OVC019 18/17 A2966 RMK AO2 T01750168
KPZQ 260455Z AUTO 31004KT 7SM OVC019 18/17 A2965 RMK AO2 T01760170
KPZQ 260435Z AUTO 00000KT 10SM BKN015 BKN019 OVC026 18/17 A2965 RMK AO2 T01770171
KPZQ 260415Z AUTO 19003KT 10SM SCT019 BKN031 OVC090 18/17 A2965 RMK AO2 T01770171
KPZQ 260355Z AUTO 15004KT 7SM SCT044 OVC090 18/17 A2967 RMK AO2 T01750170 402620170
KPZQ 260335Z AUTO 00000KT 10SM SCT033 SCT044 OVC100 18/17 A2968 RMK AO2 T01760170
KPZQ 260315Z AUTO 00000KT 10SM SCT033 SCT039 BKN110 18/17 A2969 RMK AO2 T01770170
KPZQ 260255Z AUTO 00000KT 10SM SCT036 BKN042 BKN060 18/17 A2969 RMK AO2 T01800170
KPZQ 260235Z AUTO 20004KT 10SM SCT022 SCT060 BKN075 18/17 A2971 RMK AO2 T01800170
KPZQ 260215Z AUTO 00000KT 3SM -RA SCT014 BKN022 OVC070 18/17 A2971 RMK AO2 T01820170
KPZQ 260155Z AUTO 00000KT 10SM BKN012 BKN031 OVC044 20/18 A2972 RMK AO2 T02020177
KPZQ 260135Z AUTO 18005KT 10SM BKN046 BKN050 20/18 A2972 RMK AO2 T02020178
KPZQ 260115Z AUTO 18006KT 10SM SCT075 20/18 A2972 RMK AO2 T02030175
KPZQ 260055Z AUTO 17007KT 10SM SCT065 BKN075 21/18 A2973 RMK AO2 T02050175
KPZQ 260035Z AUTO 18007KT 10SM CLR 21/17 A2974 RMK AO2 T02070174
KPZQ 260015Z AUTO 19006KT 10SM CLR 21/17 A2974 RMK AO2 T02120173
KPZQ 252355Z AUTO 17007KT 10SM CLR 22/17 A2974 RMK AO2 T02150171 10262 20210
KPZQ 252335Z AUTO 17004KT 10SM SCT049 SCT100 22/17 A2974 RMK AO2 T02200169
KPZQ 252315Z AUTO 16003KT 10SM BKN047 BKN060 BKN100 23/17 A2975 RMK AO2 T02260168
KPZQ 252255Z AUTO 00000KT 10SM SCT043 BKN060 OVC100 21/16 A2976 RMK AO2 T02110163
KPZQ 252235Z AUTO 00000KT 10SM BKN050 BKN090 22/16 A2977 RMK AO2 T02170164
KPZQ 252215Z AUTO 00000KT 10SM BKN050 23/17 A2978 RMK AO2 T02300167
KPZQ 252155Z AUTO 23003KT 10SM SCT047 SCT060 24/16 A2978 RMK AO2 T02420164
KPZQ 252135Z AUTO 21006KT 10SM SCT043 BKN050 BKN060 25/16 A2978 RMK AO2 T02490160
KPZQ 252115Z AUTO 21004KT 10SM SCT043 BKN050 BKN060 25/16 A2978 RMK AO2 T02480156
KPZQ 252055Z AUTO 21004KT 10SM BKN041 BKN050 BKN060 24/16 A2979 RMK AO2 T02440160
KPZQ 252035Z AUTO 23005KT 10SM SCT043 SCT050 SCT070 25/16 A2980 RMK AO2 T02510156
KPZQ 252015Z AUTO 23006KT 10SM SCT046 SCT050 BKN070 26/15 A2981 RMK AO2 T02610152
KPZQ 251955Z AUTO 24007G15KT 10SM SCT046 SCT050 BKN070 26/15 A2982 RMK AO2 T02600151
KPZQ 251935Z AUTO 21007KT 10SM SCT041 SCT048 BKN065 26/16 A2982 RMK AO2 T02600155
KPZQ 251915Z AUTO 23007KT 10SM SCT039 SCT047 BKN065 25/16 A2983 RMK AO2 T02450155
KPZQ 251855Z AUTO 20008G14KT 10SM SCT037 BKN047 BKN050 25/16 A2984 RMK AO2 T02520161
KPZQ 251835Z AUTO 24008KT 10SM SCT037 25/16 A2983 RMK AO2 T02470164
KPZQ 251815Z AUTO 22005KT 10SM SCT032 SCT060 25/17 A2984 RMK AO2 T02520165
KPZQ 251755Z AUTO 20007KT 10SM BKN030 BKN060 25/17 A2985 RMK AO2 T02460169 10246 20181
KPZQ 251735Z AUTO 17007KT 10SM SCT030 SCT055 24/17 A2985 RMK AO2 T02410171
KPZQ 251715Z AUTO 20005KT 10SM SCT028 SCT038 SCT055 23/17 A2986 RMK AO2 T02250169
KPZQ 251655Z AUTO 20006KT 10SM SCT028 BKN040 BKN050 24/17 A2986 RMK AO2 T02380166
KPZQ 251635Z AUTO 21005KT 10SM SCT023 SCT030 BKN050 23/17 A2987 RMK AO2 T02290166
KPZQ 251615Z AUTO 00000KT 10SM SCT023 SCT049 BKN060 23/18 A2987 RMK AO2 T02310176
KPZQ 251555Z AUTO 25005KT 10SM SCT031 SCT043 BKN060 23/18 A2988 RMK AO2 T02300175
KPZQ 251535Z AUTO 24007KT 10SM SCT020 BKN027 OVC060 22/17 A2988 RMK AO2 T02150174
KPZQ 251515Z AUTO 20007KT 10SM BKN018 BKN026 22/17 A2988 RMK AO2 T02150174
KPZQ 251455Z AUTO 22005KT 10SM SCT014 BKN024 21/18 A2988 RMK AO2 T02110181
KPZQ 251435Z AUTO 22004KT 10SM SCT012 OVC024 20/18 A2989 RMK AO2 T02020181
KPZQ 251415Z AUTO 21004KT 10SM SCT009 BKN022 OVC028 20/18 A2990 RMK AO2 T01960179
KPZQ 251355Z AUTO 20006KT 10SM SCT007 SCT026 BKN030 20/18 A2989 RMK AO2 T01950178
KPZQ 251335Z AUTO 20004KT 10SM SCT007 BKN030 19/18 A2989 RMK AO2 T01930178
KPZQ 251315Z AUTO 20006KT 10SM BKN030 OVC055 19/18 A2989 RMK AO2 T01900178
KPZQ 251255Z AUTO 19006KT 10SM OVC055 19/18 A2990 RMK AO2 T01870175
KPZQ 251235Z AUTO 20005KT 10SM BKN033 OVC055 19/18 A2990 RMK AO2 T01850175
KPZQ 251215Z AUTO 20007KT 10SM OVC031 18/17 A2990 RMK AO2 T01830173
KPZQ 251155Z AUTO 19007KT 10SM OVC031 18/17 A2990 RMK AO2 T01810172 10181 20176
KPZQ 251135Z AUTO 19005KT 10SM OVC029 18/17 A2990 RMK AO2 T01800171
KPZQ 251115Z AUTO 19006KT 10SM BKN023 OVC029 18/17 A2989 RMK AO2 T01810172
KPZQ 251055Z AUTO 19008KT 10SM OVC021 18/17 A2989 RMK AO2 T01800172
KPZQ 251035Z AUTO 20007KT 10SM BKN021 18/17 A2989 RMK AO2 T01790170
KPZQ 251015Z AUTO 20007KT 10SM SCT009 BKN014 BKN019 18/17 A2989 RMK AO2 T01770170
KPZQ 250955Z AUTO 19006KT 10SM OVC012 18/17 A2989 RMK AO2 T01800172
KPZQ 250935Z AUTO 19008KT 10SM SCT007 BKN013 OVC065 18/17 A2989 RMK AO2 T01780170
KPZQ 250915Z AUTO 18006KT 10SM SCT007 BKN020 OVC050 18/17 A2989 RMK AO2 T01790170
KPZQ 250855Z AUTO 19007KT 10SM SCT007 SCT011 OVC022 18/17 A2989 RMK AO2 T01800170
KPZQ 250835Z AUTO 19008KT 10SM OVC007 18/17 A2990 RMK AO2 T01780170
KPZQ 250815Z AUTO 17008KT 10SM OVC007 18/17 A2990 RMK AO2 T01780170
KPZQ 250755Z AUTO 18006KT 10SM BKN007 OVC030 18/17 A2990 RMK AO2 T01770170
KPZQ 250735Z AUTO 18007KT 7SM OVC007 18/17 A2991 RMK AO2 T01770170
KPZQ 250715Z AUTO 17007KT 5SM -RA BKN007 BKN012 OVC045 18/17 A2992 RMK AO2 T01760167
KPZQ 250655Z AUTO 15010KT 7SM -RA SCT010 BKN014 OVC045 18/17 A2993 RMK AO2 T01770168
KPZQ 250635Z AUTO 16006KT 5SM DZ BKN010 OVC014 18/17 A2993 RMK AO2 T01770167
KPZQ 250615Z AUTO 17005KT 7SM SCT007 OVC015 18/17 A2994 RMK AO2 T01770168
KPZQ 250555Z AUTO 17007KT 7SM OVC005 18/17 A2996 RMK AO2 T01750167 10175 20155
KPZQ 250535Z AUTO 17008KT 3SM BR OVC005 18/17 A2997 RMK AO2 T01750166
KPZQ 250515Z AUTO 18006KT 7SM OVC005 18/17 A2998 RMK AO2 T01750165
KPZQ 250455Z AUTO 16007KT 5SM BR OVC007 17/17 A2998 RMK AO2 T01740165
KPZQ 250435Z AUTO 17006KT 5SM BR OVC007 17/17 A2999 RMK AO2 T01730165
KPZQ 250415Z AUTO 17011G15KT 7SM OVC007 17/16 A3000 RMK AO2 T01720163
KPZQ 250355Z AUTO 17007KT 7SM OVC007 17/16 A3000 RMK AO2 T01700161 401700103
KPZQ 250335Z AUTO 16007KT 7SM OVC007 17/16 A3001 RMK AO2 T01680160
KPZQ 250315Z AUTO 15007G14KT 4SM -DZ OVC007 17/16 A3001 RMK AO2 T01660157
KPZQ 250255Z AUTO 16007KT 5SM BR OVC007 17/16 A3002 RMK AO2 T01650155
KPZQ 250235Z AUTO 15010G14KT 4SM BR OVC007 17/15 A3003 RMK AO2 T01650154
KPZQ 250215Z AUTO 16009G14KT 4SM -RA OVC009 17/15 A3004 RMK AO2 T01660151
KPZQ 250155Z AUTO 15009KT 10SM OVC009 17/15 A3004 RMK AO2 T01660150
KPZQ 250135Z AUTO 14007G14KT 120V180 10SM OVC009 17/15 A3005 RMK AO2 T01650148
KPZQ 250115Z AUTO 15009G14KT 10SM OVC009 17/15 A3005 RMK AO2 T01650147
KPZQ 250055Z AUTO 14008G15KT 10SM OVC011 16/15 A3005 RMK AO2 T01630145
KPZQ 250035Z AUTO 14009KT 10SM OVC011 16/14 A3006 RMK AO2 T01590141
KPZQ 250015Z AUTO 14007KT 10SM OVC011 16/14 A3007 RMK AO2 T01550136
KPZQ 242355Z AUTO 13009KT 10SM OVC013 16/13 A3007 RMK AO2 T01550132 10165 20151
KPZQ 242335Z AUTO 12007KT 10SM OVC013 16/13 A3009 RMK AO2 T01550130
KPZQ 242315Z AUTO 13007KT 10SM OVC013 15/13 A3009 RMK AO2 T01530128
KPZQ 242255Z AUTO 12009KT 10SM OVC015 15/13 A3010 RMK AO2 T01540126
KPZQ 242235Z AUTO 12009KT 10SM OVC017 15/13 A3010 RMK AO2 T01540126